Time;durP1;ratioP1;P1;durP2;ratioP2;P2;SDS_P1;SDS_P2;PMS_P1;PMS_P2;Temp;Humidity;BMP_temperature;BMP_pressure;BME280_temperature;BME280_humidity;BME280_pressure;Samples;Min_cycle;Max_cycle;Signal;HPM_P1;HPM_P2
2023/06/24 00:01:49;;;;;;;16.80;14.65;;;16.50;99.90;;;;;;5117227;27;20567;-38
2023/06/24 00:04:16;;;;;;;15.18;13.40;;;16.50;99.90;;;;;;5137709;27;20548;-38
2023/06/24 00:06:42;;;;;;;15.38;13.88;;;16.50;99.90;;;;;;5136145;27;20704;-38
2023/06/24 00:09:08;;;;;;;15.65;13.52;;;16.40;99.90;;;;;;5117762;27;20760;-38
2023/06/24 00:11:33;;;;;;;14.57;13.07;;;16.40;99.90;;;;;;5098835;27;20507;-38
2023/06/24 00:13:59;;;;;;;15.00;13.30;;;16.40;99.90;;;;;;5080400;27;20082;-38
2023/06/24 00:16:28;;;;;;;16.85;14.23;;;16.30;99.90;;;;;;5116213;27;20127;-38
2023/06/24 00:19:00;;;;;;;15.55;13.95;;;16.30;99.90;;;;;;5115584;27;20119;-38
2023/06/24 00:21:29;;;;;;;15.80;14.25;;;16.30;99.90;;;;;;5115418;27;20062;-38
2023/06/24 00:23:56;;;;;;;14.55;13.25;;;16.30;99.90;;;;;;5097606;27;20091;-38
2023/06/24 00:26:22;;;;;;;15.05;13.57;;;16.20;99.90;;;;;;5116844;27;20051;-38
2023/06/24 00:28:47;;;;;;;13.65;12.43;;;16.20;99.90;;;;;;5115181;27;20050;-38
2023/06/24 00:31:13;;;;;;;13.90;12.60;;;16.10;99.90;;;;;;5116627;27;20047;-38
2023/06/24 00:33:39;;;;;;;14.93;13.43;;;16.00;99.90;;;;;;5115597;27;20058;-38
2023/06/24 00:36:06;;;;;;;16.25;14.68;;;16.00;99.90;;;;;;5106695;27;20046;-38
2023/06/24 00:38:32;;;;;;;14.95;13.63;;;16.00;99.90;;;;;;5109892;27;20047;-38
2023/06/24 00:40:58;;;;;;;17.10;13.60;;;16.00;99.90;;;;;;5107901;27;20118;-38
2023/06/24 00:43:24;;;;;;;16.23;14.57;;;16.00;99.90;;;;;;5122624;27;20579;-38
2023/06/24 00:45:53;;;;;;;16.58;14.98;;;15.90;99.90;;;;;;5134949;27;20050;-38
2023/06/24 00:48:20;;;;;;;16.70;15.05;;;15.90;99.90;;;;;;5135237;27;20592;-38
2023/06/24 00:50:45;;;;;;;17.60;15.30;;;15.80;99.90;;;;;;5137068;27;20047;-38
2023/06/24 00:53:14;;;;;;;17.00;15.30;;;15.80;99.90;;;;;;5133585;27;20086;-38
2023/06/24 00:55:40;;;;;;;16.50;14.90;;;15.70;99.90;;;;;;5110508;27;20093;-38
2023/06/24 00:58:05;;;;;;;16.42;14.82;;;15.70;99.90;;;;;;5134939;27;20582;-38
2023/06/24 01:00:34;;;;;;;17.55;15.75;;;15.70;99.90;;;;;;5135832;27;20560;-38
2023/06/24 01:03:00;;;;;;;17.90;16.10;;;15.70;99.90;;;;;;5132845;27;20053;-38
2023/06/24 01:05:29;;;;;;;17.65;15.85;;;15.80;99.90;;;;;;5123851;27;20054;-38
2023/06/24 01:07:56;;;;;;;17.40;15.57;;;15.80;99.90;;;;;;5135152;27;20345;-38
2023/06/24 01:10:23;;;;;;;16.85;15.20;;;15.80;99.90;;;;;;5135265;27;20487;-38
2023/06/24 01:12:49;;;;;;;17.33;15.65;;;15.90;99.90;;;;;;5088971;27;20058;-39
2023/06/24 01:15:16;;;;;;;18.02;16.30;;;15.90;99.90;;;;;;5135973;27;20129;-38
2023/06/24 01:17:47;;;;;;;16.58;15.05;;;15.90;99.90;;;;;;5135070;27;20515;-38
2023/06/24 01:20:27;;;;;;;17.00;15.45;;;16.00;99.90;;;;;;5136177;27;20179;-38
2023/06/24 01:23:30;;;;;;;18.38;16.45;;;16.00;99.90;;;;;;5134388;27;20519;-38
2023/06/24 01:26:15;;;;;;;17.65;15.82;;;15.90;99.90;;;;;;5136032;27;20385;-38
2023/06/24 01:28:48;;;;;;;17.55;15.40;;;16.00;99.90;;;;;;5134642;27;20512;-38
2023/06/24 01:31:23;;;;;;;;;;;15.90;99.90;;;;;;5135379;27;20054;-38
2023/06/24 01:34:01;;;;;;;17.48;15.48;;;15.90;99.90;;;;;;5112860;27;19978;-39
2023/06/24 01:36:28;;;;;;;18.27;15.82;;;15.80;99.90;;;;;;5093738;27;20093;-38
2023/06/24 01:39:03;;;;;;;17.33;15.73;;;15.80;99.90;;;;;;5128852;27;20545;-38
2023/06/24 01:41:33;;;;;;;17.25;15.70;;;15.70;99.90;;;;;;5114323;27;20496;-38
2023/06/24 01:44:01;;;;;;;17.77;16.17;;;15.70;99.90;;;;;;5094377;27;20051;-38
2023/06/24 01:46:29;;;;;;;18.40;16.60;;;15.50;99.90;;;;;;5114688;27;20062;-38
2023/06/24 01:48:59;;;;;;;17.65;15.90;;;15.50;99.90;;;;;;5114267;27;20475;-38
2023/06/24 01:51:27;;;;;;;17.45;15.77;;;15.40;99.90;;;;;;5113594;27;20139;-38
2023/06/24 01:54:04;;;;;;;18.13;16.48;;;15.40;99.90;;;;;;5113392;27;20122;-38
2023/06/24 01:56:31;;;;;;;17.30;15.57;;;15.30;99.90;;;;;;5113851;27;20051;-38
2023/06/24 01:59:00;;;;;;;17.63;15.90;;;15.30;99.90;;;;;;5114021;27;20058;-38
2023/06/24 02:01:27;;;;;;;18.10;16.33;;;15.30;99.90;;;;;;5101709;27;20116;-38
2023/06/24 02:03:55;;;;;;;17.70;16.00;;;15.30;99.90;;;;;;5107121;27;20047;-38
2023/06/24 02:06:23;;;;;;;18.30;16.60;;;15.30;99.90;;;;;;5110879;27;20126;-38
2023/06/24 02:08:50;;;;;;;18.25;16.42;;;15.30;99.90;;;;;;5111865;27;20039;-38
2023/06/24 02:11:17;;;;;;;18.48;16.77;;;15.20;99.90;;;;;;5114232;27;20115;-38
2023/06/24 02:13:44;;;;;;;19.65;16.95;;;15.20;99.90;;;;;;5095454;28;20085;-38
2023/06/24 02:16:10;;;;;;;17.50;15.80;;;15.20;99.90;;;;;;5114124;27;20084;-38
2023/06/24 02:18:42;;;;;;;18.13;16.42;;;15.20;99.90;;;;;;5113674;27;20050;-38
2023/06/24 02:21:08;;;;;;;18.55;16.55;;;15.10;99.90;;;;;;5112721;27;20051;-38
2023/06/24 02:23:37;;;;;;;19.52;16.33;;;15.10;99.90;;;;;;5114505;27;20078;-38
2023/06/24 02:26:05;;;;;;;18.27;16.38;;;15.10;99.90;;;;;;5113639;27;20055;-39
2023/06/24 02:28:32;;;;;;;18.50;16.35;;;15.00;99.90;;;;;;5077965;28;20062;-38
2023/06/24 02:30:59;;;;;;;17.70;16.00;;;15.00;99.90;;;;;;5113786;27;20501;-38
2023/06/24 02:33:26;;;;;;;18.27;16.40;;;15.00;99.90;;;;;;5113928;27;20039;-38
2023/06/24 02:35:52;;;;;;;21.13;16.15;;;15.00;99.90;;;;;;5101621;27;20500;-38
2023/06/24 02:38:18;;;;;;;18.02;16.27;;;15.00;99.90;;;;;;5124252;27;20116;-38
2023/06/24 02:40:46;;;;;;;17.13;15.43;;;15.00;99.90;;;;;;5113596;27;20072;-38
2023/06/24 02:43:13;;;;;;;16.80;15.20;;;14.90;99.90;;;;;;5107596;27;20611;-38
2023/06/24 02:45:39;;;;;;;16.58;14.98;;;15.00;99.90;;;;;;5111569;27;20202;-38
2023/06/24 02:48:07;;;;;;;17.25;14.98;;;14.90;99.90;;;;;;5112330;27;20055;-38
2023/06/24 02:50:33;;;;;;;18.77;15.40;;;15.00;99.90;;;;;;5112491;27;20051;-38
2023/06/24 02:52:59;;;;;;;15.93;14.50;;;15.00;99.90;;;;;;5094084;28;20054;-38
2023/06/24 02:55:26;;;;;;;18.52;16.50;;;15.00;99.90;;;;;;5113043;27;20054;-38
2023/06/24 02:57:53;;;;;;;18.05;16.15;;;14.90;99.90;;;;;;5113516;27;20409;-38
2023/06/24 03:00:20;;;;;;;18.02;16.13;;;14.90;99.90;;;;;;5113814;27;20382;-38
2023/06/24 03:02:47;;;;;;;16.25;14.60;;;14.90;99.90;;;;;;5113445;27;20047;-38
2023/06/24 03:05:15;;;;;;;17.48;15.60;;;14.90;99.90;;;;;;5112833;27;20422;-38
2023/06/24 03:07:42;;;;;;;16.48;15.05;;;15.00;99.90;;;;;;5094042;27;20050;-38
2023/06/24 03:10:08;;;;;;;18.42;16.60;;;15.00;99.90;;;;;;5117886;27;20462;-38
2023/06/24 03:12:34;;;;;;;17.10;15.50;;;14.90;99.90;;;;;;5117565;27;20115;-38
2023/06/24 03:15:02;;;;;;;17.15;15.45;;;15.00;99.90;;;;;;5117633;27;20134;-38
2023/06/24 03:17:29;;;;;;;18.20;16.25;;;15.00;99.90;;;;;;5098693;27;20118;-38
2023/06/24 03:19:54;;;;;;;18.63;16.67;;;15.00;99.90;;;;;;5082559;27;20183;-38
2023/06/24 03:22:21;;;;;;;18.70;16.55;;;15.00;99.90;;;;;;5116208;27;20157;-38
2023/06/24 03:24:47;;;;;;;18.38;16.58;;;15.00;99.90;;;;;;5106921;27;20441;-38
2023/06/24 03:27:13;;;;;;;19.30;16.52;;;15.10;99.90;;;;;;5137525;27;20058;-38
2023/06/24 03:29:38;;;;;;;18.35;16.50;;;15.00;99.90;;;;;;5138307;27;20043;-38
2023/06/24 03:32:04;;;;;;;18.45;16.52;;;15.00;99.90;;;;;;5136542;27;20042;-40
2023/06/24 03:34:30;;;;;;;19.48;17.30;;;15.00;99.90;;;;;;5122885;27;20390;-38
2023/06/24 03:36:56;;;;;;;19.88;17.52;;;15.00;99.90;;;;;;5090253;27;20058;-38
2023/06/24 03:39:22;;;;;;;18.85;16.95;;;15.00;99.90;;;;;;5083574;27;20066;-38
2023/06/24 03:41:47;;;;;;;20.63;17.67;;;15.00;99.90;;;;;;5116974;27;20043;-38
2023/06/24 03:44:13;;;;;;;18.48;16.52;;;15.00;99.90;;;;;;5113982;27;20049;-38
2023/06/24 03:46:39;;;;;;;20.00;16.35;;;15.20;99.90;;;;;;5118225;27;20615;-38
2023/06/24 03:49:05;;;;;;;18.40;16.33;;;15.60;99.90;;;;;;5137404;27;20051;-38
2023/06/24 03:51:30;;;;;;;18.45;16.67;;;16.10;99.90;;;;;;5136418;27;20401;-38
2023/06/24 03:53:56;;;;;;;18.15;16.45;;;16.50;99.90;;;;;;5136215;27;20052;-38
2023/06/24 03:56:22;;;;;;;16.70;15.07;;;16.90;99.90;;;;;;5135836;27;20051;-38
2023/06/24 03:58:48;;;;;;;16.05;14.55;;;17.30;99.90;;;;;;5137123;27;20050;-38
2023/06/24 04:01:14;;;;;;;17.75;16.08;;;17.90;99.90;;;;;;5122894;27;20055;-38
2023/06/24 04:03:39;;;;;;;17.55;15.70;;;18.30;99.90;;;;;;5116055;27;20158;-39
2023/06/24 04:06:05;;;;;;;17.35;15.75;;;18.70;99.90;;;;;;5135131;27;20050;-39
2023/06/24 04:08:31;;;;;;;16.60;15.00;;;18.90;99.90;;;;;;5137127;27;20066;-39
2023/06/24 04:11:03;;;;;;;17.75;15.48;;;19.20;99.90;;;;;;5117786;27;20050;-39
2023/06/24 04:13:29;;;;;;;17.55;15.90;;;19.50;99.90;;;;;;5136430;27;20206;-39
2023/06/24 04:15:55;;;;;;;17.45;15.65;;;19.70;99.90;;;;;;5118273;27;20062;-39
2023/06/24 04:18:21;;;;;;;17.45;15.82;;;19.90;99.90;;;;;;5136265;27;20453;-39
2023/06/24 04:20:47;;;;;;;17.70;15.90;;;20.10;99.90;;;;;;5135973;27;20047;-39
2023/06/24 04:23:14;;;;;;;17.70;16.10;;;20.40;99.90;;;;;;5118916;27;20590;-39
2023/06/24 04:25:40;;;;;;;18.40;16.55;;;20.70;99.90;;;;;;5137220;27;20377;-39
2023/06/24 04:28:06;;;;;;;17.10;15.63;;;21.00;99.90;;;;;;5117296;27;20643;-39
2023/06/24 04:30:35;;;;;;;18.75;16.98;;;21.20;99.90;;;;;;5137410;27;20043;-39
2023/06/24 04:33:00;;;;;;;17.90;16.30;;;21.20;99.90;;;;;;5136414;27;20047;-39
2023/06/24 04:35:26;;;;;;;17.90;16.05;;;21.20;99.90;;;;;;5106138;27;20051;-40
2023/06/24 04:37:52;;;;;;;17.55;15.95;;;21.40;99.90;;;;;;5107241;27;20055;-39
2023/06/24 04:40:19;;;;;;;16.50;15.02;;;21.60;99.90;;;;;;5097714;27;20391;-39
2023/06/24 04:42:45;;;;;;;17.40;15.77;;;21.80;99.90;;;;;;5129645;27;20564;-40
2023/06/24 04:45:11;;;;;;;17.65;15.75;;;22.10;99.90;;;;;;5124365;27;20045;-39
2023/06/24 04:47:36;;;;;;;17.88;16.27;;;22.20;99.90;;;;;;5135679;27;20042;-39
2023/06/24 04:50:03;;;;;;;18.63;17.00;;;22.40;99.90;;;;;;5134812;27;20054;-40
2023/06/24 04:52:28;;;;;;;18.58;16.88;;;22.40;99.90;;;;;;5134574;27;20049;-40
2023/06/24 04:54:54;;;;;;;17.75;16.25;;;22.50;99.90;;;;;;5135417;27;20050;-40
2023/06/24 04:57:28;;;;;;;17.35;15.77;;;22.70;99.90;;;;;;5109471;27;20058;-40
2023/06/24 04:59:54;;;;;;;19.05;17.10;;;23.00;99.90;;;;;;5115052;27;20042;-40
2023/06/24 05:02:20;;;;;;;17.63;15.90;;;23.30;99.90;;;;;;5096303;27;20039;-40
2023/06/24 05:04:45;;;;;;;17.33;15.93;;;23.70;99.90;;;;;;5115283;27;20489;-40
2023/06/24 05:07:11;;;;;;;17.17;15.45;;;24.10;99.90;;;;;;5114312;27;20456;-40
2023/06/24 05:09:38;;;;;;;18.20;16.42;;;24.50;99.90;;;;;;5114804;27;20039;-40
2023/06/24 05:12:07;;;;;;;17.17;15.68;;;24.90;99.90;;;;;;5114795;27;20179;-40
2023/06/24 05:14:36;;;;;;;17.75;16.17;;;25.30;99.90;;;;;;5115105;27;20576;-40
2023/06/24 05:17:05;;;;;;;17.08;15.60;;;25.60;99.90;;;;;;5115269;27;20142;-40
2023/06/24 05:19:31;;;;;;;17.45;16.02;;;25.80;99.90;;;;;;5115453;27;20047;-41
2023/06/24 05:21:57;;;;;;;16.95;15.48;;;26.00;99.90;;;;;;5114791;27;20512;-41
2023/06/24 05:24:22;;;;;;;16.90;15.60;;;26.30;99.90;;;;;;5114869;27;20065;-40
2023/06/24 05:26:50;;;;;;;17.42;15.85;;;26.50;99.90;;;;;;5115607;27;20046;-40
2023/06/24 05:29:16;;;;;;;17.15;15.65;;;26.80;99.90;;;;;;5115344;27;20100;-41
2023/06/24 05:31:42;;;;;;;16.52;15.07;;;27.10;99.90;;;;;;5115200;27;20058;-40
2023/06/24 05:34:08;;;;;;;16.55;15.15;;;27.10;99.90;;;;;;5110240;27;20044;-40
2023/06/24 05:36:34;;;;;;;17.77;16.05;;;27.40;99.90;;;;;;5095334;27;20054;-40
2023/06/24 05:39:00;;;;;;;16.52;15.18;;;27.50;99.80;;;;;;5101187;27;20073;-41
2023/06/24 05:41:25;;;;;;;16.60;15.20;;;27.60;99.50;;;;;;5104413;27;20051;-40
2023/06/24 05:44:02;;;;;;;18.67;16.88;;;27.60;99.60;;;;;;5110347;27;20051;-40
2023/06/24 05:46:28;;;;;;;16.85;15.30;;;27.70;99.70;;;;;;5096128;27;20058;-41
2023/06/24 05:48:53;;;;;;;17.63;15.93;;;27.50;99.30;;;;;;5095110;27;20118;-41
2023/06/24 05:51:19;;;;;;;16.63;15.23;;;27.80;99.40;;;;;;5113544;27;20050;-40
2023/06/24 05:53:44;;;;;;;18.27;16.67;;;28.00;99.10;;;;;;5114076;27;20111;-41
2023/06/24 05:56:10;;;;;;;16.95;15.43;;;28.70;99.60;;;;;;5094786;27;20065;-41
2023/06/24 05:58:36;;;;;;;16.38;14.85;;;29.40;98.70;;;;;;5094636;27;20517;-40
2023/06/24 06:01:01;;;;;;;16.48;15.02;;;29.80;98.30;;;;;;5112786;27;20594;-41
2023/06/24 06:03:27;;;;;;;15.82;14.32;;;29.80;97.60;;;;;;5113570;27;20047;-46
2023/06/24 06:05:53;;;;;;;16.10;14.77;;;29.60;98.00;;;;;;5113744;27;20039;-41
2023/06/24 06:08:18;;;;;;;16.67;15.02;;;29.00;98.20;;;;;;5094531;28;20331;-41
2023/06/24 06:10:44;;;;;;;16.23;14.02;;;28.00;99.50;;;;;;5113924;27;20054;-41
2023/06/24 06:13:09;;;;;;;16.17;14.77;;;27.40;99.50;;;;;;5113950;27;20054;-41
2023/06/24 06:15:35;;;;;;;15.73;14.43;;;27.00;99.90;;;;;;5113810;27;20055;-41
2023/06/24 06:18:01;;;;;;;15.13;13.43;;;26.40;99.90;;;;;;5113267;27;20043;-40
2023/06/24 06:20:26;;;;;;;15.05;13.57;;;25.80;99.90;;;;;;5113847;27;20058;-41
2023/06/24 06:22:52;;;;;;;17.25;15.55;;;25.60;99.90;;;;;;5114837;27;20070;-40
2023/06/24 06:25:18;;;;;;;16.20;14.70;;;25.00;99.90;;;;;;5114631;27;20477;-40
2023/06/24 06:27:43;;;;;;;16.83;15.32;;;24.70;99.90;;;;;;5113872;27;20477;-40
2023/06/24 06:30:09;;;;;;;15.57;14.35;;;24.40;99.90;;;;;;5114366;27;20166;-40
2023/06/24 06:32:35;;;;;;;15.50;14.23;;;24.20;99.90;;;;;;5114043;27;20510;-40
2023/06/24 06:35:01;;;;;;;16.48;14.77;;;24.10;99.90;;;;;;5083604;28;20040;-40
2023/06/24 06:37:26;;;;;;;20.40;14.75;;;23.90;99.90;;;;;;5120349;27;20533;-40
2023/06/24 06:39:52;;;;;;;16.50;15.07;;;23.90;99.90;;;;;;5075005;28;20054;-40
2023/06/24 06:42:18;;;;;;;15.75;14.30;;;24.00;99.90;;;;;;5110495;27;20545;-40
2023/06/24 06:44:43;;;;;;;15.93;14.45;;;24.00;99.90;;;;;;5120440;27;20039;-39
2023/06/24 06:47:10;;;;;;;17.08;15.38;;;23.90;99.90;;;;;;5137090;27;20493;-40
2023/06/24 06:49:36;;;;;;;16.88;15.25;;;24.00;99.90;;;;;;5128475;27;20043;-40
2023/06/24 06:52:01;;;;;;;16.92;15.15;;;24.00;99.90;;;;;;5115939;27;20103;-41
2023/06/24 06:54:27;;;;;;;16.35;14.75;;;24.00;99.90;;;;;;5098532;27;20833;-41
2023/06/24 06:56:53;;;;;;;15.63;14.18;;;24.30;99.90;;;;;;5118367;27;20043;-40
2023/06/24 06:59:18;;;;;;;15.57;14.15;;;24.30;99.90;;;;;;5116511;27;20039;-40
2023/06/24 07:01:44;;;;;;;16.48;15.10;;;24.50;99.90;;;;;;5121366;27;20068;-40
2023/06/24 07:04:10;;;;;;;15.05;13.63;;;24.30;99.90;;;;;;5137877;27;20564;-41
2023/06/24 07:06:35;;;;;;;15.07;13.68;;;24.50;99.90;;;;;;5137540;27;20513;-41
2023/06/24 07:09:01;;;;;;;15.07;13.70;;;24.60;99.90;;;;;;5118575;27;20067;-40
2023/06/24 07:11:27;;;;;;;15.25;13.82;;;24.60;99.90;;;;;;5135330;27;20553;-40
2023/06/24 07:13:52;;;;;;;15.30;13.80;;;24.50;99.90;;;;;;5117964;27;20035;-40
2023/06/24 07:16:18;;;;;;;14.13;12.73;;;24.60;99.90;;;;;;5113913;27;20521;-41
2023/06/24 07:18:44;;;;;;;12.98;11.57;;;24.60;99.90;;;;;;5116279;27;20142;-40
2023/06/24 07:21:10;;;;;;;12.30;11.30;;;24.50;99.90;;;;;;5118928;27;20051;-41
2023/06/24 07:23:35;;;;;;;13.35;12.05;;;24.60;99.90;;;;;;5127280;27;20598;-40
2023/06/24 07:26:01;;;;;;;13.48;11.65;;;24.60;99.90;;;;;;5108483;27;20056;-40
2023/06/24 07:28:27;;;;;;;13.23;10.70;;;24.60;99.90;;;;;;5118036;27;20050;-40
2023/06/24 07:30:52;;;;;;;11.20;10.27;;;24.80;99.90;;;;;;5135690;27;20082;-41
2023/06/24 07:33:19;;;;;;;11.18;10.07;;;24.70;99.90;;;;;;5136174;27;20408;-40
2023/06/24 07:35:45;;;;;;;13.15;11.15;;;24.60;99.90;;;;;;5089283;27;20047;-41
2023/06/24 07:38:10;;;;;;;11.95;10.77;;;24.80;99.90;;;;;;5098187;27;20083;-40
2023/06/24 07:40:36;;;;;;;13.73;10.82;;;24.80;99.90;;;;;;5098092;27;20314;-40
2023/06/24 07:43:02;;;;;;;11.93;10.82;;;24.80;99.90;;;;;;5110467;27;20059;-40
2023/06/24 07:45:27;;;;;;;11.95;10.75;;;24.70;99.90;;;;;;5128877;27;20074;-40
2023/06/24 07:47:53;;;;;;;12.30;11.10;;;24.60;99.90;;;;;;5135872;27;20046;-40
2023/06/24 07:50:19;;;;;;;13.82;10.25;;;24.60;99.90;;;;;;5135263;27;20472;-40
2023/06/24 07:52:44;;;;;;;12.40;9.85;;;24.60;99.90;;;;;;5135889;27;20884;-40
2023/06/24 07:55:11;;;;;;;11.40;10.38;;;24.60;99.90;;;;;;5112624;27;20039;-40
2023/06/24 07:57:36;;;;;;;11.40;10.32;;;24.70;99.90;;;;;;5114553;27;20092;-40
2023/06/24 08:00:04;;;;;;;11.57;10.10;;;24.70;99.90;;;;;;5115271;27;20113;-40
2023/06/24 08:02:30;;;;;;;11.50;10.40;;;24.80;99.90;;;;;;5113750;27;20066;-40
2023/06/24 08:04:56;;;;;;;11.90;10.73;;;24.80;99.90;;;;;;5114815;27;20650;-40
2023/06/24 08:07:21;;;;;;;11.77;10.77;;;24.80;99.90;;;;;;5112873;27;20543;-40
2023/06/24 08:09:47;;;;;;;13.38;11.10;;;24.90;99.90;;;;;;5118589;27;20030;-40
2023/06/24 08:12:13;;;;;;;11.32;10.23;;;25.00;99.90;;;;;;5115022;27;20787;-41
2023/06/24 08:14:38;;;;;;;11.48;10.43;;;25.10;99.90;;;;;;5116174;27;20447;-40
2023/06/24 08:17:04;;;;;;;11.95;10.93;;;25.30;99.90;;;;;;5095153;27;20051;-40
2023/06/24 08:19:29;;;;;;;12.30;11.18;;;25.50;99.90;;;;;;5133840;27;20436;-40
2023/06/24 08:21:55;;;;;;;13.13;10.20;;;25.70;99.90;;;;;;5117624;27;20383;-41
2023/06/24 08:24:21;;;;;;;10.60;9.60;;;26.00;99.90;;;;;;5136934;27;20050;-41
2023/06/24 08:26:46;;;;;;;10.73;9.63;;;26.10;99.90;;;;;;5101029;27;20050;-41
2023/06/24 08:29:12;;;;;;;11.50;10.25;;;26.40;99.90;;;;;;5136788;27;20038;-40
2023/06/24 08:31:37;;;;;;;10.45;9.48;;;26.90;99.90;;;;;;5136907;27;20430;-41
2023/06/24 08:34:05;;;;;;;10.02;9.10;;;27.30;99.90;;;;;;5128369;27;20054;-41
2023/06/24 08:36:30;;;;;;;11.38;9.18;;;27.60;99.90;;;;;;5104480;27;20058;-41
2023/06/24 08:38:56;;;;;;;9.52;8.55;;;27.70;99.90;;;;;;5099955;27;20051;-41
2023/06/24 08:41:24;;;;;;;10.98;9.77;;;27.90;99.90;;;;;;5114789;27;20137;-41
2023/06/24 08:43:50;;;;;;;10.63;9.25;;;28.00;99.90;;;;;;5115656;27;20114;-41
2023/06/24 08:46:17;;;;;;;9.82;8.90;;;28.00;99.90;;;;;;5096657;27;20049;-42
2023/06/24 08:48:45;;;;;;;10.88;9.82;;;28.20;99.90;;;;;;5114893;27;20031;-40
2023/06/24 08:51:13;;;;;;;10.93;9.88;;;28.20;99.90;;;;;;5114695;27;20138;-40
2023/06/24 08:53:43;;;;;;;11.10;8.88;;;28.10;99.90;;;;;;5114250;27;20114;-40
2023/06/24 08:56:09;;;;;;;11.75;9.85;;;28.20;99.90;;;;;;5113741;27;20055;-41
2023/06/24 08:58:35;;;;;;;9.18;8.27;;;28.20;99.90;;;;;;5115493;27;20049;-40
2023/06/24 09:01:02;;;;;;;8.13;7.30;;;28.30;99.90;;;;;;5116221;27;20397;-43
2023/06/24 09:03:28;;;;;;;8.48;7.68;;;28.40;99.90;;;;;;5117062;27;20043;-40
2023/06/24 09:05:53;;;;;;;9.05;7.82;;;28.40;99.90;;;;;;5113573;27;20050;-40
2023/06/24 09:08:21;;;;;;;7.65;6.95;;;28.60;99.90;;;;;;5112211;27;20080;-41
2023/06/24 09:10:54;;;;;;;8.63;7.20;;;28.80;99.90;;;;;;5113528;27;20096;-41
2023/06/24 09:13:20;;;;;;;8.30;7.50;;;28.50;99.90;;;;;;5114275;27;20046;-41
2023/06/24 09:15:46;;;;;;;8.98;7.28;;;28.60;99.90;;;;;;5115394;27;20062;-41
2023/06/24 09:18:11;;;;;;;8.52;7.60;;;28.40;99.90;;;;;;5114998;27;20047;-40
2023/06/24 09:20:44;;;;;;;9.40;7.82;;;28.30;99.90;;;;;;5114233;27;20064;-40
2023/06/24 09:23:10;;;;;;;8.20;6.95;;;28.20;99.30;;;;;;5115085;27;20222;-41
2023/06/24 09:25:36;;;;;;;9.35;7.53;;;28.20;99.80;;;;;;5115775;27;20050;-40
2023/06/24 09:28:03;;;;;;;7.97;7.18;;;28.20;99.40;;;;;;5115137;27;20051;-40
2023/06/24 09:30:29;;;;;;;10.48;7.53;;;28.40;99.90;;;;;;5114809;27;20130;-41
2023/06/24 09:32:55;;;;;;;9.48;7.82;;;28.60;99.70;;;;;;5114820;27;20486;-40
2023/06/24 09:35:23;;;;;;;8.10;7.30;;;28.50;99.90;;;;;;5099264;27;20044;-40
2023/06/24 09:37:54;;;;;;;7.80;7.00;;;28.70;99.20;;;;;;5094655;27;20849;-41
2023/06/24 09:40:23;;;;;;;8.02;6.97;;;28.90;99.70;;;;;;5097081;27;20063;-41
2023/06/24 09:42:56;;;;;;;8.15;7.32;;;29.00;99.20;;;;;;5129605;27;20051;-41
2023/06/24 09:45:27;;;;;;;9.27;6.85;;;29.10;99.50;;;;;;5091623;27;20055;-40
2023/06/24 09:47:53;;;;;;;7.35;6.63;;;29.10;99.10;;;;;;5095715;27;21015;-41
2023/06/24 09:50:19;;;;;;;7.35;6.63;;;29.10;97.70;;;;;;5113161;27;20058;-41
2023/06/24 09:52:46;;;;;;;7.57;6.88;;;28.90;97.30;;;;;;5106132;27;20066;-41
2023/06/24 09:55:17;;;;;;;7.63;6.78;;;28.80;97.30;;;;;;5131162;27;20043;-40
2023/06/24 09:57:49;;;;;;;9.90;6.72;;;28.50;97.10;;;;;;5125151;27;20125;-40
2023/06/24 10:00:19;;;;;;;9.35;6.57;;;28.50;97.80;;;;;;5134791;27;20099;-40
2023/06/24 10:02:46;;;;;;;7.53;6.80;;;28.60;97.90;;;;;;5134916;27;20053;-41
2023/06/24 10:05:15;;;;;;;8.35;7.53;;;28.60;98.70;;;;;;5133274;27;20054;-40
2023/06/24 10:07:42;;;;;;;8.65;7.25;;;28.60;97.50;;;;;;5134224;27;20595;-41
2023/06/24 10:10:09;;;;;;;9.63;7.22;;;28.70;98.10;;;;;;5134214;27;20039;-40
2023/06/24 10:12:35;;;;;;;10.98;7.30;;;28.80;98.10;;;;;;5135088;27;20454;-40
2023/06/24 10:15:01;;;;;;;11.98;7.25;;;28.90;98.30;;;;;;5134066;27;20042;-40
2023/06/24 10:17:27;;;;;;;8.35;7.55;;;29.00;98.40;;;;;;5114921;27;20403;-41
2023/06/24 10:19:56;;;;;;;8.38;7.00;;;29.00;97.80;;;;;;5134620;27;20050;-41
2023/06/24 10:22:28;;;;;;;9.05;6.60;;;29.10;97.80;;;;;;5134219;27;20488;-41
2023/06/24 10:24:54;;;;;;;7.72;6.80;;;29.10;97.60;;;;;;5097075;28;20055;-40
2023/06/24 10:27:23;;;;;;;8.77;6.60;;;29.20;97.20;;;;;;5113887;27;20050;-41
2023/06/24 10:29:53;;;;;;;6.78;5.63;;;29.30;97.00;;;;;;5114738;27;20487;-41
2023/06/24 10:32:21;;;;;;;8.80;6.05;;;29.30;96.50;;;;;;5113849;27;20062;-41
2023/06/24 10:34:53;;;;;;;7.95;6.10;;;29.40;96.60;;;;;;5105642;27;20043;-41
2023/06/24 10:37:20;;;;;;;8.02;6.60;;;29.50;97.00;;;;;;5107176;27;20053;-41
2023/06/24 10:40:02;;;;;;;10.57;7.18;;;29.50;97.10;;;;;;5094754;27;20290;-40
2023/06/24 10:42:28;;;;;;;8.48;6.07;;;29.70;96.40;;;;;;5093485;28;20047;-41
2023/06/24 10:44:58;;;;;;;9.05;5.88;;;29.80;95.70;;;;;;5105204;27;20124;-40
2023/06/24 10:47:43;;;;;;;8.23;5.65;;;29.90;95.50;;;;;;5112732;27;20053;-41
2023/06/24 10:50:11;;;;;;;10.32;5.80;;;29.80;95.20;;;;;;5094448;27;20096;-41
2023/06/24 10:52:43;;;;;;;8.05;5.30;;;29.70;94.00;;;;;;5113563;28;20047;-40
2023/06/24 10:55:09;;;;;;;7.47;5.68;;;29.60;94.50;;;;;;5095359;27;20453;-40
2023/06/24 10:57:34;;;;;;;5.05;4.63;;;29.60;94.30;;;;;;5113988;28;20050;-40
2023/06/24 11:00:03;;;;;;;5.63;4.95;;;29.60;95.20;;;;;;5112368;27;20077;-41
2023/06/24 11:02:28;;;;;;;5.70;5.05;;;29.70;95.00;;;;;;5113587;27;20630;-41
2023/06/24 11:04:59;;;;;;;6.32;4.85;;;29.60;94.20;;;;;;5113072;27;20043;-40
2023/06/24 11:07:27;;;;;;;5.80;5.22;;;29.80;94.40;;;;;;5113404;27;20058;-42
2023/06/24 11:10:12;;;;;;;5.75;5.03;;;29.60;94.70;;;;;;5096000;27;20469;-40
2023/06/24 11:12:39;;;;;;;5.60;4.65;;;29.70;94.90;;;;;;5114413;27;20043;-42
2023/06/24 11:15:07;;;;;;;9.15;4.95;;;29.80;94.50;;;;;;5113452;27;20043;-40
2023/06/24 11:17:37;;;;;;;5.53;4.85;;;29.70;94.30;;;;;;5094341;27;20047;-41
2023/06/24 11:20:10;;;;;;;4.68;4.20;;;29.90;94.50;;;;;;5113562;27;20496;-40
2023/06/24 11:22:36;;;;;;;4.85;4.45;;;29.90;93.40;;;;;;5113618;27;20081;-40
2023/06/24 11:25:02;;;;;;;5.78;5.28;;;29.90;93.70;;;;;;5114338;27;20054;-41
2023/06/24 11:27:29;;;;;;;5.53;4.55;;;29.90;94.20;;;;;;5113330;28;20314;-42
2023/06/24 11:29:58;;;;;;;7.15;5.35;;;29.70;94.00;;;;;;5115396;27;20054;-41
2023/06/24 11:32:24;;;;;;;6.38;5.18;;;29.80;95.20;;;;;;5098810;27;20055;-40
2023/06/24 11:34:50;;;;;;;6.40;5.20;;;29.90;95.30;;;;;;5107876;27;20036;-41
2023/06/24 11:37:18;;;;;;;9.93;6.07;;;29.90;95.70;;;;;;5123243;27;20095;-40
2023/06/24 11:39:44;;;;;;;5.97;5.47;;;30.00;96.00;;;;;;5106575;27;20537;-40
2023/06/24 11:42:11;;;;;;;6.35;5.60;;;30.00;95.70;;;;;;5111662;27;20151;-41
2023/06/24 11:44:43;;;;;;;7.65;6.63;;;30.10;95.80;;;;;;5089282;27;20047;-40
2023/06/24 11:47:10;;;;;;;7.13;5.22;;;30.00;95.50;;;;;;5133377;27;20432;-40
2023/06/24 11:50:03;;;;;;;6.18;5.13;;;29.80;95.20;;;;;;5137283;27;20049;-40
2023/06/24 11:52:45;;;;;;;6.63;5.93;;;29.70;96.10;;;;;;5114854;27;20062;-40
2023/06/24 11:55:18;;;;;;;7.82;6.40;;;29.50;96.40;;;;;;5119322;27;20046;-41
2023/06/24 11:57:51;;;;;;;7.25;6.40;;;29.40;96.50;;;;;;5116671;27;20043;-40
2023/06/24 12:00:23;;;;;;;7.85;6.00;;;29.30;96.80;;;;;;5115573;27;20411;-41
2023/06/24 12:02:49;;;;;;;;;;;29.10;96.60;;;;;;5117444;27;20061;-40
2023/06/24 12:05:25;;;;;;;6.25;5.65;;;28.90;96.00;;;;;;5116029;27;20433;-41
2023/06/24 12:07:52;;;;;;;8.57;5.30;;;28.90;96.60;;;;;;5116027;27;20472;-41
2023/06/24 12:10:18;;;;;;;7.18;5.38;;;28.60;95.30;;;;;;5136587;27;20145;-40
2023/06/24 12:12:44;;;;;;;6.25;5.40;;;28.70;95.60;;;;;;5135946;27;20042;-42
2023/06/24 12:15:09;;;;;;;6.13;5.30;;;29.00;96.50;;;;;;5115843;27;20573;-40
2023/06/24 12:17:35;;;;;;;9.27;5.40;;;29.50;96.20;;;;;;5115806;27;20423;-40
2023/06/24 12:20:01;;;;;;;7.80;6.18;;;29.70;95.80;;;;;;5115280;27;20038;-40
2023/06/24 12:22:27;;;;;;;7.03;5.65;;;29.70;95.50;;;;;;5115940;27;20082;-40
2023/06/24 12:24:52;;;;;;;6.32;5.68;;;29.50;95.40;;;;;;5116459;27;20053;-40
2023/06/24 12:27:18;;;;;;;7.57;6.60;;;29.40;95.40;;;;;;5116045;27;20073;-40
2023/06/24 12:29:43;;;;;;;8.05;6.70;;;29.10;95.90;;;;;;5116574;27;20664;-40
2023/06/24 12:32:09;;;;;;;9.23;6.43;;;29.00;96.20;;;;;;5115303;27;20082;-40
2023/06/24 12:34:35;;;;;;;8.18;6.30;;;28.90;96.30;;;;;;5108550;27;20051;-41